Time;durP1;ratioP1;P1;durP2;ratioP2;P2;SDS_P1;SDS_P2;PMS_P1;PMS_P2;Temp;Humidity;BMP_temperature;BMP_pressure;BME280_temperature;BME280_humidity;BME280_pressure;Samples;Min_cycle;Max_cycle;Signal;HPM_P1;HPM_P2
2022/07/25 00:03:11;;;;;;;16.05;8.02;;;;;;;;;;10155667;28;20062;-58
2022/07/25 00:08:17;;;;;;;8.95;6.57;;;;;;;;;;10155225;28;20061;-57
2022/07/25 00:13:15;;;;;;;11.85;6.70;;;;;;;;;;10155083;28;20435;-58
2022/07/25 00:18:14;;;;;;;7.47;6.63;;;;;;;;;;10155152;28;20542;-57
2022/07/25 00:23:12;;;;;;;12.38;6.65;;;;;;;;;;10155417;28;20081;-58
2022/07/25 00:28:12;;;;;;;6.72;5.03;;;;;;;;;;10155314;28;20049;-58
2022/07/25 00:33:11;;;;;;;9.45;6.05;;;;;;;;;;10154494;28;20061;-58
2022/07/25 00:38:09;;;;;;;6.63;6.03;;;;;;;;;;10154943;28;20061;-59
2022/07/25 00:43:07;;;;;;;9.35;6.20;;;;;;;;;;10154917;28;20080;-58
2022/07/25 00:48:07;;;;;;;6.90;6.30;;;;;;;;;;10154266;28;20073;-58
2022/07/25 00:53:06;;;;;;;7.57;6.88;;;;;;;;;;10153505;28;20046;-58
2022/07/25 00:58:04;;;;;;;9.07;6.10;;;;;;;;;;10154138;28;20081;-58
2022/07/25 01:03:02;;;;;;;7.63;6.75;;;;;;;;;;10154394;28;20515;-58
2022/07/25 01:08:03;;;;;;;9.68;5.78;;;;;;;;;;10154160;28;20416;-58
2022/07/25 01:13:01;;;;;;;7.78;6.63;;;;;;;;;;10159711;28;20050;-58
2022/07/25 01:18:00;;;;;;;13.52;8.25;;;;;;;;;;10161867;28;20173;-58
2022/07/25 01:23:00;;;;;;;9.80;7.72;;;;;;;;;;10164418;28;20062;-58
2022/07/25 01:27:58;;;;;;;12.13;8.02;;;;;;;;;;10181506;28;20088;-58
2022/07/25 01:32:56;;;;;;;8.18;7.38;;;;;;;;;;10178955;28;20077;-59
2022/07/25 01:37:55;;;;;;;12.15;8.70;;;;;;;;;;10168554;28;20054;-60
2022/07/25 01:42:54;;;;;;;8.27;7.47;;;;;;;;;;10161269;28;20464;-60
2022/07/25 01:47:53;;;;;;;8.77;7.97;;;;;;;;;;10160780;28;20090;-60
2022/07/25 01:52:51;;;;;;;9.85;7.00;;;;;;;;;;10160230;28;20074;-59
2022/07/25 01:57:50;;;;;;;9.13;7.80;;;;;;;;;;10160879;28;20571;-59
2022/07/25 02:03:28;;;;;;;8.98;7.78;;;;;;;;;;10160224;28;20078;-60
2022/07/25 02:08:09;;;;;;;8.30;6.97;;;;;;;;;;10159177;28;20050;-60
2022/07/25 02:13:08;;;;;;;9.05;7.53;;;;;;;;;;10159580;28;20074;-59
2022/07/25 02:18:10;;;;;;;9.55;7.45;;;;;;;;;;10159318;28;20058;-60
2022/07/25 02:23:08;;;;;;;8.50;7.40;;;;;;;;;;10156666;28;20440;-59
2022/07/25 02:28:07;;;;;;;9.88;7.80;;;;;;;;;;10158986;28;20054;-59
2022/07/25 02:33:07;;;;;;;9.40;6.90;;;;;;;;;;10159409;28;20053;-59
2022/07/25 02:38:07;;;;;;;9.07;6.75;;;;;;;;;;10157742;28;20058;-59
2022/07/25 02:43:06;;;;;;;9.38;6.55;;;;;;;;;;10157901;28;20456;-60
2022/07/25 02:48:04;;;;;;;8.80;6.97;;;;;;;;;;10157472;28;20082;-59
2022/07/25 02:53:03;;;;;;;10.73;8.20;;;;;;;;;;10158216;28;20097;-59
2022/07/25 02:58:03;;;;;;;8.13;7.10;;;;;;;;;;10157985;28;20050;-59
2022/07/25 03:03:01;;;;;;;8.98;7.00;;;;;;;;;;10158507;28;20077;-59
2022/07/25 03:08:01;;;;;;;9.18;7.45;;;;;;;;;;10157287;28;20085;-59
2022/07/25 03:12:59;;;;;;;8.27;6.63;;;;;;;;;;10156887;28;20420;-59
2022/07/25 03:17:59;;;;;;;9.25;8.10;;;;;;;;;;10157176;28;20096;-59
2022/07/25 03:22:57;;;;;;;8.77;7.47;;;;;;;;;;10157380;28;20073;-59
2022/07/25 03:27:56;;;;;;;7.85;6.97;;;;;;;;;;10156225;28;20046;-59
2022/07/25 03:32:54;;;;;;;8.57;7.68;;;;;;;;;;10176372;28;20081;-59
2022/07/25 03:37:54;;;;;;;8.70;7.35;;;;;;;;;;10196418;28;20057;-59
2022/07/25 03:42:52;;;;;;;12.88;7.97;;;;;;;;;;10196588;28;20488;-59
2022/07/25 03:47:51;;;;;;;12.27;11.10;;;;;;;;;;10196356;28;20050;-60
2022/07/25 03:52:49;;;;;;;10.30;9.07;;;;;;;;;;10195619;28;20045;-59
2022/07/25 03:57:49;;;;;;;10.75;9.68;;;;;;;;;;10195386;28;20104;-58
2022/07/25 04:02:47;;;;;;;10.30;8.90;;;;;;;;;;10195220;28;20088;-58
2022/07/25 04:07:45;;;;;;;10.80;8.07;;;;;;;;;;10195614;28;20092;-60
2022/07/25 04:12:44;;;;;;;9.73;8.73;;;;;;;;;;10183985;28;20050;-59
2022/07/25 04:17:44;;;;;;;12.15;8.02;;;;;;;;;;10181070;28;20073;-60
2022/07/25 04:22:42;;;;;;;14.98;10.85;;;;;;;;;;10171990;28;20069;-60
2022/07/25 04:27:44;;;;;;;9.88;8.95;;;;;;;;;;10154969;28;20046;-60
2022/07/25 04:32:43;;;;;;;14.05;12.68;;;;;;;;;;10174723;28;20050;-58
2022/07/25 04:37:42;;;;;;;9.73;8.65;;;;;;;;;;10185839;28;20068;-58
2022/07/25 04:42:40;;;;;;;9.82;8.77;;;;;;;;;;10154159;28;20073;-59
2022/07/25 04:47:39;;;;;;;10.85;9.75;;;;;;;;;;10126369;28;20054;-59
2022/07/25 04:52:39;;;;;;;10.52;8.50;;;;;;;;;;10170363;28;20072;-59
2022/07/25 04:57:37;;;;;;;11.75;8.57;;;;;;;;;;10153209;28;20075;-59
2022/07/25 05:02:36;;;;;;;10.65;8.23;;;;;;;;;;10147632;28;20077;-59
2022/07/25 05:07:34;;;;;;;9.48;7.28;;;;;;;;;;10146286;28;20483;-59
2022/07/25 05:12:34;;;;;;;9.10;8.20;;;;;;;;;;10152847;28;20078;-60
2022/07/25 05:17:33;;;;;;;9.30;8.32;;;;;;;;;;10152365;28;20101;-60
2022/07/25 05:22:31;;;;;;;9.45;7.53;;;;;;;;;;10148497;28;20522;-60
2022/07/25 05:27:29;;;;;;;12.63;9.27;;;;;;;;;;10172948;28;20066;-59
2022/07/25 05:32:29;;;;;;;9.80;8.85;;;;;;;;;;10161822;28;20069;-59
2022/07/25 05:37:28;;;;;;;10.77;9.77;;;;;;;;;;10162956;28;20077;-59
2022/07/25 05:42:26;;;;;;;11.35;10.18;;;;;;;;;;10167644;28;20487;-60
2022/07/25 05:47:24;;;;;;;11.57;9.38;;;;;;;;;;10170880;28;20504;-60
2022/07/25 05:52:24;;;;;;;12.63;11.25;;;;;;;;;;10153115;28;20418;-60
2022/07/25 05:57:22;;;;;;;10.63;9.63;;;;;;;;;;10168001;28;20423;-60
2022/07/25 06:02:21;;;;;;;10.98;9.50;;;;;;;;;;10154366;28;20449;-60
2022/07/25 06:07:19;;;;;;;10.23;9.38;;;;;;;;;;10171856;28;20073;-60
2022/07/25 06:12:19;;;;;;;10.45;9.35;;;;;;;;;;10194207;28;20068;-61
2022/07/25 06:17:21;;;;;;;13.20;10.93;;;;;;;;;;10189907;28;20070;-60
2022/07/25 06:22:19;;;;;;;12.80;11.40;;;;;;;;;;10184936;28;20467;-60
2022/07/25 06:27:19;;;;;;;11.77;10.77;;;;;;;;;;10182346;28;20069;-60
2022/07/25 06:32:22;;;;;;;9.77;8.88;;;;;;;;;;10171104;28;20069;-60
2022/07/25 06:37:20;;;;;;;11.10;10.05;;;;;;;;;;10174122;28;20066;-60
2022/07/25 06:42:20;;;;;;;12.73;9.93;;;;;;;;;;10177094;28;20505;-61
2022/07/25 06:47:19;;;;;;;10.25;9.23;;;;;;;;;;10178709;28;20085;-60
2022/07/25 06:52:18;;;;;;;9.85;8.95;;;;;;;;;;10168232;28;20086;-60
2022/07/25 06:57:16;;;;;;;11.30;10.10;;;;;;;;;;10145646;28;20066;-60
2022/07/25 07:02:16;;;;;;;14.20;9.02;;;;;;;;;;10168691;28;20074;-60
2022/07/25 07:07:15;;;;;;;10.60;9.60;;;;;;;;;;10161149;28;20573;-60
2022/07/25 07:12:13;;;;;;;10.93;9.98;;;;;;;;;;10167515;28;20070;-60
2022/07/25 07:17:11;;;;;;;11.65;9.32;;;;;;;;;;10116168;28;20492;-60
2022/07/25 07:22:11;;;;;;;10.88;9.98;;;;;;;;;;10134312;28;20077;-60
2022/07/25 07:27:10;;;;;;;10.40;9.25;;;;;;;;;;10179388;28;20677;-60
2022/07/25 07:32:09;;;;;;;10.95;9.20;;;;;;;;;;10187804;28;20085;-60
2022/07/25 07:37:07;;;;;;;10.48;9.45;;;;;;;;;;10194917;28;20081;-61
2022/07/25 07:42:07;;;;;;;9.82;8.85;;;;;;;;;;10196313;28;20085;-61
2022/07/25 07:47:05;;;;;;;10.40;9.40;;;;;;;;;;10194340;28;20073;-61
2022/07/25 07:52:11;;;;;;;8.57;7.75;;;;;;;;;;10191040;28;20088;-62
2022/07/25 07:57:11;;;;;;;10.27;9.10;;;;;;;;;;10190507;28;20073;-59
2022/07/25 08:02:09;;;;;;;9.52;8.63;;;;;;;;;;10190608;28;20085;-61
2022/07/25 08:07:07;;;;;;;9.88;8.25;;;;;;;;;;10193768;28;20076;-60
2022/07/25 08:12:06;;;;;;;8.98;8.07;;;;;;;;;;10192460;28;20041;-61
2022/07/25 08:17:06;;;;;;;9.63;8.63;;;;;;;;;;10193527;28;20078;-61
2022/07/25 08:22:09;;;;;;;8.85;7.90;;;;;;;;;;10192490;28;20077;-61
2022/07/25 08:27:08;;;;;;;11.00;9.98;;;;;;;;;;10194197;28;20108;-60
2022/07/25 08:32:07;;;;;;;10.43;7.88;;;;;;;;;;10193142;28;20073;-60
2022/07/25 08:37:07;;;;;;;8.70;7.82;;;;;;;;;;10192817;28;20085;-59
2022/07/25 08:42:06;;;;;;;8.05;7.35;;;;;;;;;;10191986;28;20057;-59
2022/07/25 08:47:14;;;;;;;8.00;7.20;;;;;;;;;;10192798;28;20504;-61
2022/07/25 08:52:12;;;;;;;13.38;9.32;;;;;;;;;;10193500;28;20052;-61
2022/07/25 08:57:11;;;;;;;8.80;7.80;;;;;;;;;;10192530;28;20072;-63
2022/07/25 09:02:13;;;;;;;7.97;7.13;;;;;;;;;;10192872;28;20196;-61
2022/07/25 09:07:12;;;;;;;8.10;7.30;;;;;;;;;;10193093;28;20084;-61
2022/07/25 09:12:10;;;;;;;10.77;8.40;;;;;;;;;;10192951;28;20070;-61
2022/07/25 09:17:08;;;;;;;10.18;7.10;;;;;;;;;;10191460;28;20515;-60
2022/07/25 09:22:22;;;;;;;8.77;7.72;;;;;;;;;;10191559;28;20072;-60
2022/07/25 09:27:20;;;;;;;9.40;6.35;;;;;;;;;;10192075;28;20196;-61
2022/07/25 09:32:19;;;;;;;7.45;6.75;;;;;;;;;;10194662;28;20081;-60
2022/07/25 09:37:19;;;;;;;9.02;6.90;;;;;;;;;;10199638;28;20080;-60
2022/07/25 09:42:20;;;;;;;7.28;6.22;;;;;;;;;;10199105;28;20096;-61
2022/07/25 09:47:18;;;;;;;10.23;6.38;;;;;;;;;;10199910;28;20499;-60
2022/07/25 09:52:17;;;;;;;7.32;5.85;;;;;;;;;;10199585;28;20487;-60
2022/07/25 09:57:15;;;;;;;7.15;6.45;;;;;;;;;;10198953;28;20105;-61
2022/07/25 10:02:19;;;;;;;6.07;5.47;;;;;;;;;;10198582;28;20522;-61
2022/07/25 10:07:21;;;;;;;6.95;6.03;;;;;;;;;;10198278;28;20085;-60
2022/07/25 10:12:25;;;;;;;7.10;6.43;;;;;;;;;;10196482;28;20046;-60
2022/07/25 10:17:24;;;;;;;7.25;5.97;;;;;;;;;;10197828;28;20519;-60
2022/07/25 10:22:23;;;;;;;7.47;6.68;;;;;;;;;;10196998;28;20074;-61
2022/07/25 10:27:47;;;;;;;12.35;6.82;;;;;;;;;;10197401;28;20503;-61
2022/07/25 10:32:50;;;;;;;6.20;5.65;;;;;;;;;;10197029;28;20077;-61
2022/07/25 10:37:50;;;;;;;6.57;5.78;;;;;;;;;;10197338;28;20073;-61
2022/07/25 10:42:49;;;;;;;5.82;5.32;;;;;;;;;;10196524;28;20431;-61
2022/07/25 10:47:53;;;;;;;6.22;5.50;;;;;;;;;;10196683;28;20455;-61
2022/07/25 10:52:58;;;;;;;7.07;6.38;;;;;;;;;;10196943;28;20077;-61
2022/07/25 10:58:00;;;;;;;7.28;5.57;;;;;;;;;;10196216;28;20084;-61
2022/07/25 11:03:16;;;;;;;6.60;5.90;;;;;;;;;;10194926;28;20441;-61
2022/07/25 11:08:15;;;;;;;6.43;5.55;;;;;;;;;;10196334;28;20468;-59
2022/07/25 11:13:19;;;;;;;6.60;6.00;;;;;;;;;;10195811;28;20081;-60
2022/07/25 11:18:19;;;;;;;7.20;5.80;;;;;;;;;;10196245;28;20085;-60
2022/07/25 11:23:21;;;;;;;6.38;5.07;;;;;;;;;;10195879;28;20049;-60
2022/07/25 11:28:19;;;;;;;6.93;5.47;;;;;;;;;;10196283;28;20478;-60
2022/07/25 11:33:19;;;;;;;6.40;5.57;;;;;;;;;;10196022;28;20049;-60
2022/07/25 11:38:17;;;;;;;6.15;5.55;;;;;;;;;;10195292;28;20080;-60
2022/07/25 11:43:19;;;;;;;6.03;5.47;;;;;;;;;;10195783;28;20049;-60
2022/07/25 11:48:21;;;;;;;8.60;5.30;;;;;;;;;;10195431;28;20084;-60
2022/07/25 11:53:19;;;;;;;6.90;6.05;;;;;;;;;;10195829;28;20046;-60
2022/07/25 11:58:18;;;;;;;5.35;4.85;;;;;;;;;;10195451;28;20079;-60
2022/07/25 12:03:17;;;;;;;6.07;5.53;;;;;;;;;;10194914;28;20069;-60
2022/07/25 12:08:21;;;;;;;6.93;5.13;;;;;;;;;;10194699;28;20081;-60
2022/07/25 12:13:21;;;;;;;5.82;5.10;;;;;;;;;;10194343;28;20046;-60
2022/07/25 12:18:20;;;;;;;5.88;5.32;;;;;;;;;;10194370;28;20046;-61
2022/07/25 12:23:21;;;;;;;6.05;5.53;;;;;;;;;;10194597;28;20361;-61
2022/07/25 12:28:19;;;;;;;6.38;5.88;;;;;;;;;;10194366;28;20096;-60
2022/07/25 12:33:19;;;;;;;5.43;4.93;;;;;;;;;;10193481;28;20186;-61
2022/07/25 12:38:17;;;;;;;8.10;5.68;;;;;;;;;;10193593;28;20058;-60
2022/07/25 12:43:17;;;;;;;5.78;5.28;;;;;;;;;;10190066;28;20488;-60
2022/07/25 12:48:15;;;;;;;9.15;5.90;;;;;;;;;;10157434;28;20089;-60
2022/07/25 12:53:13;;;;;;;6.68;5.85;;;;;;;;;;10153759;28;20046;-60
2022/07/25 12:58:13;;;;;;;7.00;6.38;;;;;;;;;;10158616;28;20054;-61
2022/07/25 13:03:14;;;;;;;6.28;5.68;;;;;;;;;;10169922;28;20070;-61
2022/07/25 13:08:12;;;;;;;10.65;4.90;;;;;;;;;;10172598;28;20499;-60
2022/07/25 13:13:12;;;;;;;7.93;5.57;;;;;;;;;;10162520;28;20063;-60
2022/07/25 13:18:11;;;;;;;6.80;6.10;;;;;;;;;;10179922;28;20073;-60
2022/07/25 13:23:11;;;;;;;6.05;5.55;;;;;;;;;;10179199;28;20360;-58
2022/07/25 13:28:18;;;;;;;9.77;6.45;;;;;;;;;;10176808;28;20081;-60
2022/07/25 13:33:18;;;;;;;7.90;5.55;;;;;;;;;;10179795;28;20070;-60
2022/07/25 13:38:17;;;;;;;5.82;5.32;;;;;;;;;;10181780;28;20069;-60
2022/07/25 13:43:16;;;;;;;7.07;5.70;;;;;;;;;;10183285;28;20061;-61
2022/07/25 13:48:14;;;;;;;5.97;5.38;;;;;;;;;;10177799;28;20077;-57
2022/07/25 13:53:33;;;;;;;5.80;5.10;;;;;;;;;;10177877;28;20077;-58
2022/07/25 13:58:32;;;;;;;5.97;5.47;;;;;;;;;;10184006;28;20453;-58
2022/07/25 14:03:30;;;;;;;6.40;5.78;;;;;;;;;;10164976;28;20046;-59
2022/07/25 14:08:29;;;;;;;10.10;8.77;;;;;;;;;;10196882;28;20069;-59
2022/07/25 14:13:29;;;;;;;9.18;6.18;;;;;;;;;;10182956;28;20073;-60
2022/07/25 14:18:29;;;;;;;8.13;6.18;;;;;;;;;;10162080;28;20078;-61
2022/07/25 14:23:27;;;;;;;5.53;4.97;;;;;;;;;;10171454;28;20073;-60
2022/07/25 14:28:29;;;;;;;8.32;6.13;;;;;;;;;;10193568;28;20085;-61
2022/07/25 14:33:27;;;;;;;11.18;7.15;;;;;;;;;;10195572;28;20054;-61
2022/07/25 14:38:26;;;;;;;6.80;4.93;;;;;;;;;;10194926;28;20073;-60
2022/07/25 14:43:24;;;;;;;7.65;5.05;;;;;;;;;;10191168;28;20374;-61
2022/07/25 14:48:24;;;;;;;8.25;5.22;;;;;;;;;;10190033;28;20126;-62
2022/07/25 14:53:22;;;;;;;5.57;5.07;;;;;;;;;;10190299;28;20065;-60
2022/07/25 14:58:20;;;;;;;7.57;5.85;;;;;;;;;;10194215;28;20046;-61
2022/07/25 15:03:19;;;;;;;10.00;6.57;;;;;;;;;;10197179;28;20088;-62
2022/07/25 15:08:19;;;;;;;7.78;6.10;;;;;;;;;;10196120;28;20050;-61
2022/07/25 15:13:17;;;;;;;6.40;5.82;;;;;;;;;;10196225;28;20192;-60
2022/07/25 15:18:31;;;;;;;7.55;5.70;;;;;;;;;;10195888;28;20085;-60
2022/07/25 15:23:52;;;;;;;5.15;4.65;;;;;;;;;;10195502;28;20612;-61
2022/07/25 15:28:51;;;;;;;10.05;6.30;;;;;;;;;;10195585;28;20081;-61
2022/07/25 15:33:49;;;;;;;9.40;5.82;;;;;;;;;;10195966;28;20599;-61
2022/07/25 15:38:48;;;;;;;9.20;5.57;;;;;;;;;;10195191;28;20553;-61
2022/07/25 15:43:48;;;;;;;10.65;5.43;;;;;;;;;;10195987;28;20057;-61
2022/07/25 15:48:46;;;;;;;8.82;7.93;;;;;;;;;;10194881;28;20077;-61
2022/07/25 15:53:45;;;;;;;6.28;4.50;;;;;;;;;;10192778;28;20736;-61
2022/07/25 15:58:43;;;;;;;5.88;5.22;;;;;;;;;;10195487;28;20053;-61
2022/07/25 16:03:42;;;;;;;7.28;4.93;;;;;;;;;;10194846;28;20042;-60
2022/07/25 16:08:41;;;;;;;6.78;5.15;;;;;;;;;;10194886;28;20084;-61
2022/07/25 16:13:40;;;;;;;9.20;5.03;;;;;;;;;;10195077;28;20050;-62
2022/07/25 16:18:39;;;;;;;6.22;5.57;;;;;;;;;;10194262;28;20096;-62
2022/07/25 16:23:38;;;;;;;8.68;5.93;;;;;;;;;;10195259;28;20084;-62
2022/07/25 16:28:42;;;;;;;7.00;5.22;;;;;;;;;;10193980;28;20080;-61
2022/07/25 16:33:40;;;;;;;9.02;4.63;;;;;;;;;;10194118;28;20495;-59
2022/07/25 16:38:40;;;;;;;4.95;4.40;;;;;;;;;;10193203;28;20069;-60
2022/07/25 16:43:38;;;;;;;5.78;5.20;;;;;;;;;;10193422;28;20050;-59
2022/07/25 16:48:37;;;;;;;5.32;4.25;;;;;;;;;;10192434;28;20049;-59
2022/07/25 16:53:36;;;;;;;12.02;6.82;;;;;;;;;;10193389;28;20061;-59
2022/07/25 16:58:35;;;;;;;11.23;7.90;;;;;;;;;;10193586;28;20049;-58
2022/07/25 17:03:34;;;;;;;8.43;6.55;;;;;;;;;;10193675;28;20078;-60
2022/07/25 17:08:33;;;;;;;7.63;6.07;;;;;;;;;;10192943;28;20451;-59
2022/07/25 17:13:31;;;;;;;7.28;6.25;;;;;;;;;;10193037;28;20038;-61
2022/07/25 17:18:31;;;;;;;11.27;9.00;;;;;;;;;;10192008;28;20089;-60
2022/07/25 17:23:29;;;;;;;7.13;5.72;;;;;;;;;;10193091;28;20518;-58
2022/07/25 17:28:28;;;;;;;8.95;6.53;;;;;;;;;;10192298;28;20084;-59
2022/07/25 17:33:26;;;;;;;9.38;6.45;;;;;;;;;;10191832;28;20066;-59
2022/07/25 17:38:26;;;;;;;10.18;5.35;;;;;;;;;;10190414;28;20092;-58
2022/07/25 17:43:31;;;;;;;6.97;6.15;;;;;;;;;;10192744;28;20514;-59
2022/07/25 17:48:30;;;;;;;8.98;7.03;;;;;;;;;;10191069;28;20088;-59
2022/07/25 17:53:29;;;;;;;9.23;7.00;;;;;;;;;;10194730;28;20069;-60
2022/07/25 17:58:28;;;;;;;13.80;6.47;;;;;;;;;;10199772;28;20077;-60
2022/07/25 18:03:26;;;;;;;11.05;7.07;;;;;;;;;;10198973;28;20085;-59
2022/07/25 18:08:29;;;;;;;8.95;6.95;;;;;;;;;;10199735;28;20073;-59
2022/07/25 18:13:29;;;;;;;7.68;6.53;;;;;;;;;;10199280;28;20073;-59
2022/07/25 18:18:27;;;;;;;9.73;6.57;;;;;;;;;;10198939;28;20058;-60
2022/07/25 18:23:27;;;;;;;6.30;5.70;;;;;;;;;;10199095;28;20072;-59
2022/07/25 18:28:25;;;;;;;7.65;6.85;;;;;;;;;;10198750;28;20077;-59
2022/07/25 18:33:25;;;;;;;8.52;7.65;;;;;;;;;;10198467;28;20511;-59
2022/07/25 18:38:23;;;;;;;6.78;5.65;;;;;;;;;;10198843;28;20076;-59
2022/07/25 18:43:22;;;;;;;9.32;6.13;;;;;;;;;;10197665;28;20385;-59
2022/07/25 18:48:22;;;;;;;5.32;4.93;;;;;;;;;;10198439;28;20084;-60
2022/07/25 18:53:27;;;;;;;5.75;5.30;;;;;;;;;;10198192;28;20050;-60
2022/07/25 18:58:25;;;;;;;7.80;5.28;;;;;;;;;;10197683;28;20080;-61
2022/07/25 19:03:24;;;;;;;6.63;5.20;;;;;;;;;;10196559;28;20092;-59
2022/07/25 19:08:23;;;;;;;6.97;5.28;;;;;;;;;;10197358;28;20514;-59
2022/07/25 19:13:22;;;;;;;9.65;4.75;;;;;;;;;;10197632;28;20042;-59
2022/07/25 19:18:41;;;;;;;5.80;5.30;;;;;;;;;;10196952;28;20553;-58
2022/07/25 19:23:39;;;;;;;6.47;5.47;;;;;;;;;;10196562;28;20070;-58
2022/07/25 19:28:39;;;;;;;7.05;5.30;;;;;;;;;;10196567;28;20081;-59
2022/07/25 19:33:37;;;;;;;7.30;5.43;;;;;;;;;;10196426;28;20087;-59
2022/07/25 19:38:35;;;;;;;5.47;4.97;;;;;;;;;;10196510;28;20081;-59
2022/07/25 19:43:34;;;;;;;5.70;4.82;;;;;;;;;;10196568;28;20072;-60
2022/07/25 19:48:34;;;;;;;7.63;5.20;;;;;;;;;;10182731;28;20073;-59
2022/07/25 19:53:32;;;;;;;6.68;6.03;;;;;;;;;;10167651;28;20066;-59
2022/07/25 19:58:30;;;;;;;6.47;4.97;;;;;;;;;;10166020;28;20073;-59
2022/07/25 20:03:36;;;;;;;6.13;5.40;;;;;;;;;;10174982;28;20076;-60
2022/07/25 20:08:35;;;;;;;7.20;6.00;;;;;;;;;;10180068;28;20049;-59
2022/07/25 20:13:33;;;;;;;5.78;5.03;;;;;;;;;;10188756;28;20049;-60
2022/07/25 20:18:31;;;;;;;6.25;5.05;;;;;;;;;;10164389;28;20078;-59
2022/07/25 20:23:31;;;;;;;5.68;4.78;;;;;;;;;;10171367;28;20078;-59
2022/07/25 20:28:29;;;;;;;5.50;4.97;;;;;;;;;;10173008;28;20065;-59
2022/07/25 20:33:28;;;;;;;9.27;5.32;;;;;;;;;;10167285;28;20082;-59
2022/07/25 20:38:27;;;;;;;7.60;5.25;;;;;;;;;;10166225;28;20065;-59
2022/07/25 20:43:27;;;;;;;8.50;5.38;;;;;;;;;;10176000;28;20077;-59
2022/07/25 20:48:25;;;;;;;6.97;4.22;;;;;;;;;;10176390;28;20061;-59
2022/07/25 20:53:24;;;;;;;5.18;4.75;;;;;;;;;;10169237;28;20062;-59
2022/07/25 20:58:22;;;;;;;7.40;4.90;;;;;;;;;;10173171;28;20068;-59
2022/07/25 21:03:22;;;;;;;8.93;4.82;;;;;;;;;;10173576;28;20069;-59
2022/07/25 21:08:20;;;;;;;5.20;4.72;;;;;;;;;;10160966;28;20066;-60
2022/07/25 21:13:18;;;;;;;5.45;4.85;;;;;;;;;;10149914;28;20074;-59
2022/07/25 21:18:17;;;;;;;5.00;4.60;;;;;;;;;;10149756;28;20112;-59
2022/07/25 21:23:16;;;;;;;5.53;5.00;;;;;;;;;;10151919;28;20042;-59
2022/07/25 21:28:15;;;;;;;7.03;4.70;;;;;;;;;;10157042;28;20054;-59
2022/07/25 21:33:13;;;;;;;6.05;4.47;;;;;;;;;;10159779;28;20081;-59
2022/07/25 21:38:12;;;;;;;5.35;4.85;;;;;;;;;;10161419;28;20039;-59
2022/07/25 21:43:26;;;;;;;5.65;5.07;;;;;;;;;;10160934;28;20077;-59
2022/07/25 21:53:40;;;;;;;8.55;5.55;;;;;;;;;;10160366;28;20081;-60
2022/07/25 21:58:39;;;;;;;7.85;5.18;;;;;;;;;;10160236;28;20051;-59
2022/07/25 22:03:39;;;;;;;5.93;5.32;;;;;;;;;;10160486;28;20043;-60
2022/07/25 22:08:38;;;;;;;5.25;4.75;;;;;;;;;;10159624;28;20073;-60
2022/07/25 22:13:36;;;;;;;6.10;5.50;;;;;;;;;;10159920;28;20492;-59
2022/07/25 22:18:41;;;;;;;5.40;4.88;;;;;;;;;;10159042;28;20089;-59
2022/07/25 22:23:39;;;;;;;5.47;4.85;;;;;;;;;;10159265;28;20116;-59
2022/07/25 22:28:37;;;;;;;5.60;5.10;;;;;;;;;;10159073;28;20035;-59
2022/07/25 22:33:37;;;;;;;9.38;5.63;;;;;;;;;;10158890;28;20077;-60
2022/07/25 22:38:36;;;;;;;6.88;5.60;;;;;;;;;;10158047;28;20038;-59
2022/07/25 22:43:35;;;;;;;5.18;4.70;;;;;;;;;;10159004;28;20050;-60
2022/07/25 22:48:53;;;;;;;7.03;4.63;;;;;;;;;;10158444;28;20043;-59
2022/07/25 22:53:53;;;;;;;6.63;5.93;;;;;;;;;;10157408;28;20077;-59
2022/07/25 22:58:51;;;;;;;6.10;5.60;;;;;;;;;;10173149;28;20077;-59
2022/07/25 23:03:49;;;;;;;6.15;5.50;;;;;;;;;;10197528;28;20080;-60
2022/07/25 23:08:48;;;;;;;6.55;5.80;;;;;;;;;;10197899;28;20057;-60
2022/07/25 23:13:47;;;;;;;9.32;6.32;;;;;;;;;;10197523;28;20073;-59
2022/07/25 23:18:46;;;;;;;6.43;5.85;;;;;;;;;;10196623;28;20569;-59
2022/07/25 23:23:44;;;;;;;7.93;5.72;;;;;;;;;;10196808;28;20061;-59
2022/07/25 23:28:42;;;;;;;6.35;5.80;;;;;;;;;;10196585;28;20483;-59
2022/07/25 23:33:42;;;;;;;7.55;5.65;;;;;;;;;;10196394;28;20478;-59
2022/07/25 23:38:40;;;;;;;8.25;5.60;;;;;;;;;;10196198;28;20077;-59
2022/07/25 23:43:38;;;;;;;5.90;5.40;;;;;;;;;;10195808;28;20046;-59
2022/07/25 23:48:58;;;;;;;6.40;5.80;;;;;;;;;;10196297;28;20034;-59
2022/07/25 23:53:57;;;;;;;7.25;6.65;;;;;;;;;;10195265;28;20073;-59
2022/07/25 23:58:55;;;;;;;7.95;6.32;;;;;;;;;;10195603;28;20046;-59
